createdAt,value
2018-03-26T00:00:23.612Z,30.05
2018-03-26T00:02:51.380Z,32.47
2018-03-26T00:05:18.846Z,31.52
2018-03-26T00:07:47.216Z,34.13
2018-03-26T00:10:14.984Z,33.85
2018-03-26T00:12:42.743Z,31.48
2018-03-26T00:15:10.212Z,33.65
2018-03-26T00:17:37.674Z,32.92
2018-03-26T00:20:05.436Z,32.70
2018-03-26T00:22:33.204Z,33.28
2018-03-26T00:25:00.956Z,35.08
2018-03-26T00:27:28.416Z,30.98
2018-03-26T00:29:56.105Z,32.67
2018-03-26T00:32:23.644Z,32.78
2018-03-26T00:34:51.380Z,30.98
2018-03-26T00:37:18.871Z,31.62
2018-03-26T00:39:46.336Z,33.78
2018-03-26T00:42:14.700Z,29.63
2018-03-26T00:44:42.164Z,30.37
2018-03-26T00:47:09.932Z,28.48
2018-03-26T00:49:37.693Z,28.58
2018-03-26T00:52:05.151Z,26.73
2018-03-26T00:54:32.820Z,30.27
2018-03-26T00:57:00.308Z,27.17
2018-03-26T00:59:27.751Z,28.58
2018-03-26T01:01:55.225Z,27.27
2018-03-26T01:04:22.744Z,28.38
2018-03-26T01:06:50.207Z,29.50
2018-03-26T01:09:17.744Z,27.65
2018-03-26T01:11:45.169Z,26.48
2018-03-26T01:14:12.880Z,24.33
2018-03-26T01:16:41.860Z,27.52
2018-03-26T01:19:09.341Z,25.60
2018-03-26T01:21:37.105Z,27.60
2018-03-26T01:24:04.867Z,25.37
2018-03-26T01:26:32.318Z,25.88
2018-03-26T01:29:00.016Z,26.70
2018-03-26T01:31:27.479Z,27.10
2018-03-26T01:33:55.010Z,26.85
2018-03-26T01:36:22.766Z,22.45
2018-03-26T01:38:50.240Z,26.48
2018-03-26T01:41:17.999Z,25.12
2018-03-26T01:43:45.455Z,23.23
2018-03-26T01:46:13.028Z,23.45
2018-03-26T01:48:41.292Z,23.23
2018-03-26T01:51:09.056Z,24.25
2018-03-26T01:53:36.737Z,24.15
2018-03-26T01:56:04.199Z,24.02
2018-03-26T01:58:31.661Z,20.33
2018-03-26T02:00:59.124Z,20.12
2018-03-26T02:03:26.667Z,22.75
2018-03-26T02:05:54.135Z,20.60
2018-03-26T02:08:21.875Z,20.27
2018-03-26T02:10:49.556Z,22.15
2018-03-26T02:13:17.011Z,20.75
2018-03-26T02:15:45.247Z,20.15
2018-03-26T02:18:12.712Z,21.23
2018-03-26T02:20:40.392Z,19.33
2018-03-26T02:23:07.859Z,18.60
2018-03-26T02:25:35.624Z,19.20
2018-03-26T02:28:03.290Z,19.50
2018-03-26T02:30:30.755Z,18.33
2018-03-26T02:32:58.221Z,17.95
2018-03-26T02:35:25.678Z,19.15
2018-03-26T02:37:53.162Z,20.00
2018-03-26T02:40:20.669Z,18.73
2018-03-26T02:42:48.432Z,17.55
2018-03-26T02:45:16.112Z,20.50
2018-03-26T02:47:43.664Z,20.15
2018-03-26T02:50:11.123Z,19.70
2018-03-26T02:52:38.881Z,22.67
2018-03-26T02:55:06.366Z,19.58
2018-03-26T02:57:34.016Z,19.73
2018-03-26T03:00:01.559Z,21.23
2018-03-26T03:02:29.023Z,18.98
2018-03-26T03:04:56.693Z,20.65
2018-03-26T03:07:24.961Z,22.42
2018-03-26T03:09:52.625Z,21.60
2018-03-26T03:12:20.384Z,22.77
2018-03-26T03:14:48.148Z,23.42
2018-03-26T03:17:15.607Z,21.52
2018-03-26T03:19:43.372Z,20.33
2018-03-26T03:22:11.056Z,24.40
2018-03-26T03:24:38.515Z,22.67
2018-03-26T03:27:05.976Z,20.80
2018-03-26T03:29:33.437Z,22.90
2018-03-26T03:32:00.908Z,21.50
2018-03-26T03:34:28.376Z,25.50
2018-03-26T03:36:55.844Z,24.15
2018-03-26T03:39:23.343Z,24.40
2018-03-26T03:41:50.808Z,23.15
2018-03-26T03:44:18.488Z,23.52
2018-03-26T03:46:46.009Z,24.10
2018-03-26T03:49:13.483Z,22.35
2018-03-26T03:51:40.942Z,21.37
2018-03-26T03:54:08.416Z,22.13
2018-03-26T03:56:36.174Z,21.83
2018-03-26T03:59:03.938Z,23.00
2018-03-26T04:01:31.387Z,24.50
2018-03-26T04:03:59.064Z,22.27
2018-03-26T04:06:26.620Z,21.60
2018-03-26T04:08:54.377Z,23.40
2018-03-26T04:11:21.833Z,21.30
2018-03-26T04:13:49.300Z,24.02
2018-03-26T04:16:17.190Z,23.77
2018-03-26T04:18:45.419Z,26.42
2018-03-26T04:21:12.876Z,23.55
2018-03-26T04:23:40.331Z,24.05
2018-03-26T04:26:07.801Z,24.65
2018-03-26T04:28:35.256Z,23.67
2018-03-26T04:31:02.724Z,23.80
2018-03-26T04:33:30.491Z,25.40
2018-03-26T04:35:57.955Z,24.08
2018-03-26T04:38:25.713Z,26.40
2018-03-26T04:40:53.399Z,24.20
2018-03-26T04:43:20.883Z,25.27
2018-03-26T04:45:48.404Z,26.17
2018-03-26T04:48:15.977Z,23.62
2018-03-26T04:50:44.213Z,23.98
2018-03-26T04:53:11.692Z,24.52
2018-03-26T04:55:39.158Z,27.05
2018-03-26T04:58:06.619Z,25.77
2018-03-26T05:00:34.101Z,25.65
2018-03-26T05:03:01.753Z,26.17
2018-03-26T05:05:29.211Z,26.70
2018-03-26T05:07:56.675Z,27.08
2018-03-26T05:10:24.203Z,27.37
2018-03-26T05:12:51.667Z,28.30
2018-03-26T05:15:19.424Z,28.50
2018-03-26T05:17:46.888Z,27.87
2018-03-26T05:20:14.387Z,27.92
2018-03-26T05:22:42.082Z,28.45
2018-03-26T05:25:09.563Z,30.88
2018-03-26T05:27:37.031Z,30.62
2018-03-26T05:30:04.792Z,30.25
2018-03-26T05:32:32.252Z,27.62
2018-03-26T05:34:59.949Z,29.90
2018-03-26T05:37:27.476Z,28.83
2018-03-26T05:39:54.926Z,30.30
2018-03-26T05:42:22.692Z,29.30
2018-03-26T05:44:50.386Z,27.67
2018-03-26T05:47:17.844Z,28.90
2018-03-26T05:49:45.307Z,31.45
2018-03-26T05:52:12.833Z,32.40
2018-03-26T05:54:40.244Z,31.02
2018-03-26T05:57:07.765Z,30.60
2018-03-26T05:59:35.516Z,29.37
2018-03-26T06:02:03.332Z,30.85
2018-03-26T06:04:30.755Z,29.83
2018-03-26T06:06:58.275Z,30.50
2018-03-26T06:09:25.957Z,31.65
2018-03-26T06:11:53.460Z,30.10
2018-03-26T06:14:21.097Z,27.73
2018-03-26T06:17:00.492Z,30.83
2018-03-26T06:19:27.961Z,29.25
2018-03-26T06:21:55.455Z,27.27
2018-03-26T06:24:22.911Z,30.05
2018-03-26T06:26:50.375Z,27.17
2018-03-26T06:29:17.851Z,27.13
2018-03-26T06:31:45.417Z,29.05
2018-03-26T06:34:12.873Z,29.63
2018-03-26T06:36:46.000Z,25.62
2018-03-26T06:39:26.292Z,24.30
2018-03-26T06:41:54.564Z,27.00
2018-03-26T06:44:22.324Z,26.90
2018-03-26T06:46:50.008Z,25.67
2018-03-26T06:49:17.465Z,23.60
2018-03-26T06:51:44.931Z,23.95
2018-03-26T06:54:12.612Z,23.08
2018-03-26T06:56:40.230Z,25.00
2018-03-26T06:59:07.701Z,23.25
2018-03-26T07:01:35.448Z,23.40
2018-03-26T07:04:03.209Z,26.15
2018-03-26T07:06:30.672Z,24.33
2018-03-26T07:08:58.137Z,26.83
2018-03-26T07:11:26.424Z,22.50
2018-03-26T07:13:53.892Z,24.08
2018-03-26T07:16:21.571Z,23.40
2018-03-26T07:18:49.192Z,23.00
2018-03-26T07:21:16.947Z,24.40
2018-03-26T07:23:44.468Z,21.17
2018-03-26T07:26:12.103Z,25.25
2018-03-26T07:28:39.564Z,21.00
2018-03-26T07:31:07.095Z,21.42
2018-03-26T07:33:34.547Z,21.00
2018-03-26T07:36:02.317Z,20.00
2018-03-26T07:38:30.077Z,17.15
2018-03-26T07:40:57.767Z,21.75
2018-03-26T07:43:25.308Z,18.67
2018-03-26T07:45:52.765Z,19.77
2018-03-26T07:48:20.230Z,19.20
2018-03-26T07:50:48.029Z,20.10
2018-03-26T07:53:15.700Z,20.05
2018-03-26T07:55:43.161Z,18.55
2018-03-26T07:58:10.660Z,18.60
2018-03-26T08:00:38.129Z,17.55
2018-03-26T08:03:05.860Z,19.33
2018-03-26T08:05:33.332Z,17.92
2018-03-26T08:08:00.796Z,18.40
2018-03-26T08:10:28.360Z,15.52
2018-03-26T08:12:56.023Z,16.37
2018-03-26T08:15:23.493Z,16.12
2018-03-26T08:17:51.011Z,15.90
2018-03-26T08:20:18.475Z,16.25
2018-03-26T08:22:46.015Z,15.52
2018-03-26T08:25:13.632Z,13.52
2018-03-26T08:27:41.317Z,15.65
2018-03-26T08:30:08.787Z,12.32
2018-03-26T08:32:36.303Z,13.90
2018-03-26T08:35:04.072Z,12.95
2018-03-26T08:37:31.527Z,11.12
2018-03-26T08:39:59.289Z,11.20
2018-03-26T08:42:27.259Z,11.00
2018-03-26T08:44:54.683Z,9.82
2018-03-26T08:47:22.200Z,8.45
2018-03-26T08:49:49.838Z,7.95
2018-03-26T08:52:17.659Z,8.27
2018-03-26T08:54:45.260Z,7.07
2018-03-26T08:57:13.038Z,7.10
2018-03-26T08:59:40.496Z,6.15
2018-03-26T09:02:07.955Z,7.60
2018-03-26T09:04:35.412Z,6.35
2018-03-26T09:07:03.167Z,6.40
2018-03-26T09:09:30.628Z,7.37
2018-03-26T09:11:58.413Z,6.12
2018-03-26T09:14:26.639Z,5.95
2018-03-26T09:16:54.234Z,6.12
2018-03-26T09:19:21.711Z,6.60
2018-03-26T09:21:49.453Z,6.50
2018-03-26T09:24:16.923Z,5.97
2018-03-26T09:26:44.384Z,6.00
2018-03-26T09:29:12.136Z,4.90
2018-03-26T09:31:39.646Z,5.07
2018-03-26T09:34:07.365Z,4.97
2018-03-26T09:36:35.735Z,4.43
2018-03-26T09:39:03.203Z,5.27
2018-03-26T09:41:30.664Z,4.40
2018-03-26T09:43:58.126Z,3.77
2018-03-26T09:46:25.587Z,3.90
2018-03-26T09:48:53.337Z,4.10
2018-03-26T09:51:20.806Z,3.90
2018-03-26T09:53:48.570Z,2.87
2018-03-26T09:56:16.321Z,4.10
2018-03-26T09:58:44.125Z,2.70
2018-03-26T10:01:17.496Z,2.77
2018-03-26T10:03:44.979Z,2.10
2018-03-26T10:06:13.199Z,2.70
2018-03-26T10:08:40.659Z,3.50
2018-03-26T10:11:08.120Z,2.47
2018-03-26T10:13:35.576Z,2.73
2018-03-26T10:16:03.036Z,3.20
2018-03-26T10:18:30.487Z,3.77
2018-03-26T10:20:57.948Z,3.90
2018-03-26T10:23:25.584Z,3.07
2018-03-26T10:25:53.111Z,2.70
2018-03-26T10:28:20.572Z,3.40
2018-03-26T10:30:48.023Z,3.40
2018-03-26T10:33:15.492Z,3.20
2018-03-26T10:35:43.732Z,1.53
2018-03-26T10:38:11.185Z,2.10
2018-03-26T10:40:38.859Z,2.33
2018-03-26T10:43:06.325Z,1.97
2018-03-26T10:45:33.786Z,1.80
2018-03-26T10:48:01.552Z,2.33
2018-03-26T10:50:29.316Z,1.70
2018-03-26T10:52:56.783Z,2.13
2018-03-26T10:55:24.236Z,2.60
2018-03-26T10:57:51.987Z,1.63
2018-03-26T11:00:19.483Z,1.63
2018-03-26T11:02:46.904Z,1.47
2018-03-26T11:05:14.377Z,1.40
2018-03-26T11:07:42.082Z,1.20
2018-03-26T11:10:09.595Z,2.03
2018-03-26T11:12:37.055Z,1.73
2018-03-26T11:15:04.511Z,2.80
2018-03-26T11:17:31.975Z,2.00
2018-03-26T11:19:59.724Z,1.90
2018-03-26T11:22:27.176Z,1.63
2018-03-26T11:24:54.947Z,2.40
2018-03-26T11:27:22.424Z,1.67
2018-03-26T11:29:50.083Z,1.67
2018-03-26T11:32:17.628Z,1.73
2018-03-26T11:34:45.308Z,1.37
2018-03-26T11:37:12.852Z,1.10
2018-03-26T11:39:40.615Z,1.23
2018-03-26T11:42:08.385Z,0.87
2018-03-26T11:44:36.148Z,1.00
2018-03-26T11:47:03.599Z,1.30
2018-03-26T11:49:31.068Z,1.30
2018-03-26T11:51:58.535Z,1.23
2018-03-26T11:54:26.138Z,1.70
2018-03-26T11:56:53.663Z,1.63
2018-03-26T11:59:21.203Z,2.20
2018-03-26T12:01:48.679Z,1.17
2018-03-26T12:04:16.425Z,0.77
2018-03-26T12:06:44.191Z,0.90
2018-03-26T12:09:11.968Z,1.80
2018-03-26T12:11:39.416Z,2.67
2018-03-26T12:14:06.879Z,2.13
2018-03-26T12:16:34.636Z,2.33
2018-03-26T12:19:02.101Z,2.17
2018-03-26T12:21:29.557Z,1.47
2018-03-26T12:24:08.890Z,2.23
2018-03-26T12:26:36.458Z,2.30
2018-03-26T12:29:15.692Z,2.00
2018-03-26T12:31:43.216Z,2.00
2018-03-26T12:34:22.592Z,2.60
2018-03-26T12:36:50.044Z,2.10
2018-03-26T12:39:17.616Z,2.43
2018-03-26T12:41:45.080Z,2.17
2018-03-26T12:47:08.200Z,2.67
2018-03-26T12:49:35.665Z,1.90
2018-03-26T12:52:14.736Z,2.47
2018-03-26T12:54:42.283Z,1.90
2018-03-26T12:57:21.518Z,2.20
2018-03-26T12:59:49.285Z,1.90
2018-03-26T13:02:26.300Z,1.40
2018-03-26T13:04:53.965Z,1.77
2018-03-26T13:07:21.416Z,1.73
2018-03-26T13:09:48.944Z,1.37
2018-03-26T13:12:16.712Z,1.50
2018-03-26T13:14:44.478Z,1.90
2018-03-26T13:17:12.243Z,1.83
2018-03-26T13:19:39.700Z,1.27
2018-03-26T13:22:07.165Z,1.50
2018-03-26T13:24:34.618Z,1.57
2018-03-26T13:27:02.084Z,1.33
2018-03-26T13:29:29.845Z,2.13
2018-03-26T13:31:57.304Z,1.60
2018-03-26T13:34:25.065Z,1.30
2018-03-26T13:36:52.740Z,2.00
2018-03-26T13:39:20.295Z,1.57
2018-03-26T13:41:47.852Z,2.33
2018-03-26T13:44:15.419Z,2.30
2018-03-26T13:46:42.967Z,1.80
2018-03-26T13:49:10.432Z,1.97
2018-03-26T13:51:38.116Z,1.60
2018-03-26T13:54:05.569Z,1.60
2018-03-26T13:56:33.027Z,1.70
2018-03-26T13:59:00.565Z,1.43
2018-03-26T14:01:28.332Z,1.07
2018-03-26T14:03:55.796Z,1.47
2018-03-26T14:06:23.563Z,1.43
2018-03-26T14:09:02.751Z,1.37
2018-03-26T14:11:42.178Z,1.30
2018-03-26T14:14:21.404Z,1.97
2018-03-26T14:17:01.016Z,1.20
2018-03-26T14:19:28.767Z,1.80
2018-03-26T14:21:56.532Z,1.73
2018-03-26T14:24:23.987Z,1.80
2018-03-26T14:26:51.756Z,2.00
2018-03-26T14:29:19.220Z,2.20
2018-03-26T14:31:46.900Z,2.43
2018-03-26T14:34:14.444Z,1.90
2018-03-26T14:36:42.114Z,1.60
2018-03-26T14:39:09.565Z,2.07
2018-03-26T14:41:37.044Z,2.10
2018-03-26T14:44:04.503Z,2.37
2018-03-26T14:46:31.975Z,2.60
2018-03-26T14:48:59.426Z,1.90
2018-03-26T14:51:26.884Z,2.67
2018-03-26T14:53:54.348Z,2.90
2018-03-26T14:56:21.864Z,2.50
2018-03-26T14:58:49.323Z,2.27
2018-03-26T15:01:18.283Z,2.83
2018-03-26T15:03:46.494Z,2.27
2018-03-26T15:06:14.156Z,3.13
2018-03-26T15:08:41.735Z,2.63
2018-03-26T15:11:09.538Z,2.40
2018-03-26T15:13:37.152Z,1.90
2018-03-26T15:16:04.613Z,2.70
2018-03-26T15:18:32.081Z,1.97
2018-03-26T15:20:59.827Z,2.13
2018-03-26T15:23:27.593Z,2.37
2018-03-26T15:25:55.047Z,2.73
2018-03-26T15:28:22.511Z,2.47
2018-03-26T15:30:50.276Z,2.43
2018-03-26T15:33:19.250Z,2.17
2018-03-26T15:35:46.725Z,2.63
2018-03-26T15:38:15.685Z,2.40
2018-03-26T15:40:43.156Z,2.67
2018-03-26T15:43:10.826Z,2.47
2018-03-26T15:45:38.400Z,2.43
2018-03-26T15:48:06.784Z,2.27
2018-03-26T15:50:34.248Z,2.63
2018-03-26T15:53:02.004Z,2.40
2018-03-26T15:55:29.693Z,2.97
2018-03-26T15:57:57.164Z,2.70
2018-03-26T16:00:24.631Z,2.23
2018-03-26T16:02:57.681Z,2.40
2018-03-26T16:05:25.347Z,2.33
2018-03-26T16:07:52.897Z,2.90
2018-03-26T16:10:20.363Z,2.33
2018-03-26T16:12:48.007Z,2.40
2018-03-26T16:15:15.488Z,3.10
2018-03-26T16:17:43.036Z,2.40
2018-03-26T16:20:10.800Z,3.60
2018-03-26T16:22:38.264Z,2.90
2018-03-26T16:25:06.020Z,1.80
2018-03-26T16:27:33.791Z,2.85
2018-03-26T16:30:01.259Z,3.50
2018-03-26T16:32:28.928Z,3.00
2018-03-26T16:34:56.456Z,2.13
2018-03-26T16:37:23.924Z,2.40
2018-03-26T16:39:51.693Z,2.13
2018-03-26T16:42:21.495Z,3.17
2018-03-26T16:44:48.956Z,6.07
2018-03-26T16:47:16.528Z,4.50
2018-03-26T16:49:44.030Z,3.30
2018-03-26T16:52:11.660Z,2.93
2018-03-26T16:54:39.133Z,2.50
2018-03-26T16:57:06.667Z,3.30
2018-03-26T16:59:34.151Z,10.17
2018-03-26T17:02:01.797Z,3.70
2018-03-26T17:04:29.265Z,1.67
2018-03-26T17:06:56.803Z,1.83
2018-03-26T17:09:24.259Z,2.10
2018-03-26T17:11:51.948Z,2.67
2018-03-26T17:14:19.416Z,3.17
2018-03-26T17:16:46.912Z,3.43
2018-03-26T17:19:14.356Z,2.40
2018-03-26T17:21:41.856Z,4.70
2018-03-26T17:24:09.393Z,3.47
2018-03-26T17:26:36.796Z,4.60
2018-03-26T17:29:04.540Z,2.60
2018-03-26T17:31:32.227Z,3.57
2018-03-26T17:33:59.760Z,3.00
2018-03-26T17:36:27.228Z,2.13
2018-03-26T17:38:54.689Z,3.23
2018-03-26T17:41:22.155Z,1.90
2018-03-26T17:43:49.904Z,2.50
2018-03-26T17:46:17.663Z,2.50
2018-03-26T17:48:45.124Z,3.37
2018-03-26T17:51:12.886Z,2.93
2018-03-26T17:53:40.352Z,3.07
2018-03-26T17:56:07.832Z,3.17
2018-03-26T17:58:35.292Z,1.87
2018-03-26T18:01:03.047Z,2.37
2018-03-26T18:03:31.353Z,2.90
2018-03-26T18:05:58.865Z,1.93
2018-03-26T18:08:26.459Z,2.47
2018-03-26T18:10:54.024Z,2.70
2018-03-26T18:13:21.545Z,2.57
2018-03-26T18:15:49.009Z,2.03
2018-03-26T18:18:16.476Z,2.20
2018-03-26T18:20:43.937Z,2.80
2018-03-26T18:23:11.402Z,2.67
2018-03-26T18:25:39.143Z,2.57
2018-03-26T18:28:06.607Z,3.10
2018-03-26T18:30:34.372Z,3.17
2018-03-26T18:33:01.837Z,3.10
2018-03-26T18:35:29.596Z,2.50
2018-03-26T18:37:57.164Z,2.63
2018-03-26T18:40:24.812Z,2.67
2018-03-26T18:42:52.264Z,2.13
2018-03-26T18:45:19.729Z,2.60
2018-03-26T18:47:48.692Z,2.40
2018-03-26T18:50:16.180Z,2.93
2018-03-26T18:52:43.940Z,2.63
2018-03-26T18:55:11.869Z,3.00
2018-03-26T18:57:39.476Z,2.57
2018-03-26T19:00:06.945Z,2.87
2018-03-26T19:02:34.524Z,2.33
2018-03-26T19:05:02.861Z,3.30
2018-03-26T19:07:30.447Z,2.23
2018-03-26T19:09:58.001Z,2.77
2018-03-26T19:12:25.668Z,2.67
2018-03-26T19:14:53.141Z,2.93
2018-03-26T19:17:20.600Z,4.27
2018-03-26T19:19:48.070Z,3.97
2018-03-26T19:22:15.601Z,3.37
2018-03-26T19:24:43.271Z,2.97
2018-03-26T19:27:10.818Z,3.00
2018-03-26T19:29:38.274Z,2.70
2018-03-26T19:32:05.741Z,2.37
2018-03-26T19:34:33.504Z,2.50
2018-03-26T19:37:01.263Z,2.13
2018-03-26T19:39:28.715Z,3.30
2018-03-26T19:41:56.180Z,3.83
2018-03-26T19:44:23.873Z,3.20
2018-03-26T19:46:51.355Z,4.50
2018-03-26T19:49:18.812Z,3.27
2018-03-26T19:51:46.281Z,3.53
2018-03-26T19:54:13.778Z,2.80
2018-03-26T19:56:41.412Z,3.83
2018-03-26T19:59:08.997Z,3.60
2018-03-26T20:01:36.759Z,2.83
2018-03-26T20:04:04.220Z,4.83
2018-03-26T20:06:31.691Z,3.43
2018-03-26T20:08:59.156Z,4.13
2018-03-26T20:11:26.901Z,3.63
2018-03-26T20:13:54.359Z,4.00
2018-03-26T20:16:21.836Z,4.30
2018-03-26T20:18:49.584Z,5.18
2018-03-26T20:21:17.075Z,4.35
2018-03-26T20:23:44.540Z,4.15
2018-03-26T20:26:12.266Z,5.00
2018-03-26T20:28:39.733Z,4.72
2018-03-26T20:31:07.195Z,5.03
2018-03-26T20:33:34.948Z,5.35
2018-03-26T20:36:02.415Z,4.62
2018-03-26T20:38:30.104Z,4.18
2018-03-26T20:40:57.739Z,5.45
2018-03-26T20:43:26.009Z,5.28
2018-03-26T20:45:53.468Z,5.72
2018-03-26T20:48:20.956Z,4.90
2018-03-26T20:50:48.687Z,5.65
2018-03-26T20:53:16.326Z,5.87
2018-03-26T20:55:43.852Z,5.25
2018-03-26T20:58:11.526Z,5.75
2018-03-26T21:00:38.981Z,5.95
2018-03-26T21:03:06.508Z,6.32
2018-03-26T21:05:33.967Z,5.60
2018-03-26T21:08:01.512Z,5.28
2018-03-26T21:10:28.976Z,5.75
2018-03-26T21:12:56.488Z,5.55
2018-03-26T21:15:23.947Z,5.55
2018-03-26T21:17:51.440Z,5.70
2018-03-26T21:20:19.112Z,5.32
2018-03-26T21:22:46.876Z,5.55
2018-03-26T21:25:14.351Z,5.12
2018-03-26T21:27:41.808Z,4.97
2018-03-26T21:30:09.264Z,5.65
2018-03-26T21:32:37.008Z,6.03
2018-03-26T21:35:04.465Z,5.87
2018-03-26T21:37:31.923Z,6.03
2018-03-26T21:39:59.395Z,6.37
2018-03-26T21:42:26.864Z,6.65
2018-03-26T21:44:54.543Z,6.80
2018-03-26T21:47:22.064Z,7.57
2018-03-26T21:49:49.829Z,7.47
2018-03-26T21:52:17.591Z,7.12
2018-03-26T21:54:45.067Z,5.40
2018-03-26T21:57:12.520Z,6.68
2018-03-26T21:59:40.276Z,7.50
2018-03-26T22:02:08.040Z,6.68
2018-03-26T22:04:35.567Z,7.78
2018-03-26T22:07:03.180Z,6.40
2018-03-26T22:09:30.639Z,7.50
2018-03-26T22:11:59.020Z,6.12
2018-03-26T22:14:26.484Z,6.28
2018-03-26T22:16:54.017Z,6.93
2018-03-26T22:19:21.784Z,6.72
2018-03-26T22:21:49.244Z,6.80
2018-03-26T22:24:16.919Z,6.15
2018-03-26T22:26:44.380Z,6.62
2018-03-26T22:29:11.845Z,6.55
2018-03-26T22:31:39.320Z,6.15
2018-03-26T22:34:06.771Z,7.53
2018-03-26T22:36:34.297Z,6.95
2018-03-26T22:39:01.762Z,7.07
2018-03-26T22:41:29.218Z,6.80
2018-03-26T22:43:56.680Z,6.87
2018-03-26T22:46:24.436Z,6.72
2018-03-26T22:48:51.900Z,6.60
2018-03-26T22:51:19.357Z,6.10
2018-03-26T22:53:46.804Z,6.60
2018-03-26T22:56:14.271Z,6.72
2018-03-26T22:58:41.732Z,7.97
2018-03-26T23:01:09.487Z,6.43
2018-03-26T23:03:36.944Z,6.93
2018-03-26T23:06:04.707Z,5.95
2018-03-26T23:08:32.163Z,6.75
2018-03-26T23:10:59.615Z,6.62
2018-03-26T23:13:27.076Z,7.75
2018-03-26T23:15:54.532Z,6.60
2018-03-26T23:18:22.316Z,6.28
2018-03-26T23:20:50.080Z,7.45
2018-03-26T23:23:17.841Z,8.00
2018-03-26T23:25:45.309Z,6.53
2018-03-26T23:28:13.060Z,6.50
2018-03-26T23:30:40.830Z,7.53
2018-03-26T23:33:08.594Z,8.15
2018-03-26T23:35:36.058Z,7.70
2018-03-26T23:38:03.620Z,8.32
2018-03-26T23:40:31.275Z,6.80
2018-03-26T23:42:59.049Z,8.63
2018-03-26T23:45:26.508Z,7.62
2018-03-26T23:47:54.267Z,7.30
2018-03-26T23:50:21.720Z,9.18
2018-03-26T23:52:49.177Z,8.27
2018-03-26T23:55:16.651Z,8.27
2018-03-26T23:57:44.311Z,7.37
